createdAt,value
2018-03-20T00:01:00.875Z,57.68
2018-03-20T00:04:04.237Z,58.27
2018-03-20T00:07:22.095Z,59.12
2018-03-20T00:10:30.384Z,58.98
2018-03-20T00:13:33.636Z,59.16
2018-03-20T00:16:42.450Z,57.94
2018-03-20T00:19:51.315Z,56.61
2018-03-20T00:22:55.642Z,56.55
2018-03-20T00:25:58.920Z,56.45
2018-03-20T00:29:02.202Z,54.93
2018-03-20T00:32:07.354Z,54.54
2018-03-20T00:35:10.580Z,56.09
2018-03-20T00:38:15.744Z,55.58
2018-03-20T00:41:24.472Z,54.07
2018-03-20T00:44:27.720Z,54.52
2018-03-20T00:47:31.024Z,54.74
2018-03-20T00:50:34.195Z,55.47
2018-03-20T00:53:37.428Z,55.79
2018-03-20T00:56:40.694Z,55.21
2018-03-20T00:59:43.867Z,56.17
2018-03-20T01:02:49.199Z,57.32
2018-03-20T01:05:52.476Z,57.83
2018-03-20T01:08:55.697Z,58.09
2018-03-20T01:11:59.874Z,58.99
2018-03-20T01:15:03.333Z,59.42
2018-03-20T01:18:06.659Z,61.13
2018-03-20T01:21:10.970Z,61.95
2018-03-20T01:24:15.112Z,62.14
2018-03-20T01:27:18.703Z,62.51
2018-03-20T01:30:30.044Z,62.14
2018-03-20T01:33:33.240Z,61.98
2018-03-20T01:36:36.433Z,62.18
2018-03-20T01:39:39.650Z,61.34
2018-03-20T01:42:42.866Z,61.28
2018-03-20T01:45:56.664Z,61.81
2018-03-20T01:49:01.840Z,62.31
2018-03-20T01:52:09.889Z,63.08
2018-03-20T01:55:13.112Z,63.88
2018-03-20T01:58:16.316Z,64.00
2018-03-20T02:01:20.987Z,63.58
2018-03-20T02:04:24.613Z,63.08
2018-03-20T02:07:28.793Z,62.93
2018-03-20T02:10:32.043Z,60.77
2018-03-20T02:13:40.905Z,63.40
2018-03-20T02:16:44.112Z,63.26
2018-03-20T02:19:49.548Z,63.25
2018-03-20T02:22:57.281Z,63.48
2018-03-20T02:26:01.438Z,63.64
2018-03-20T02:29:04.598Z,64.02
2018-03-20T02:32:11.722Z,64.39
2018-03-20T02:35:29.792Z,64.87
2018-03-20T02:38:34.248Z,65.31
2018-03-20T02:41:40.536Z,66.17
2018-03-20T02:45:04.421Z,65.08
2018-03-20T02:48:07.663Z,64.95
2018-03-20T02:51:12.841Z,65.45
2018-03-20T02:54:16.085Z,66.05
2018-03-20T02:57:19.335Z,65.06
2018-03-20T03:00:22.689Z,64.99
2018-03-20T03:03:27.061Z,66.15
2018-03-20T03:06:32.289Z,65.81
2018-03-20T03:09:35.633Z,65.91
2018-03-20T03:12:40.864Z,66.96
2018-03-20T03:15:45.130Z,67.81
2018-03-20T03:18:48.428Z,68.40
2018-03-20T03:21:52.792Z,67.04
2018-03-20T03:24:56.122Z,67.72
2018-03-20T03:27:59.396Z,67.18
2018-03-20T03:31:03.675Z,67.02
2018-03-20T03:34:08.203Z,67.42
2018-03-20T03:37:12.420Z,67.81
2018-03-20T03:40:15.760Z,68.15
2018-03-20T03:43:20.431Z,68.01
2018-03-20T03:46:24.762Z,67.62
2018-03-20T03:49:34.072Z,67.99
2018-03-20T03:52:37.500Z,67.80
2018-03-20T03:55:41.803Z,67.04
2018-03-20T03:58:49.297Z,66.90
2018-03-20T04:01:54.637Z,66.78
2018-03-20T04:04:57.875Z,66.32
2018-03-20T04:08:03.157Z,66.23
2018-03-20T04:11:07.384Z,66.71
2018-03-20T04:14:10.653Z,67.05
2018-03-20T04:17:14.000Z,67.47
2018-03-20T04:20:17.181Z,68.26
2018-03-20T04:23:20.500Z,68.33
2018-03-20T04:26:23.707Z,68.39
2018-03-20T04:29:27.108Z,68.55
2018-03-20T04:32:30.309Z,68.17
2018-03-20T04:35:33.662Z,68.02
2018-03-20T04:38:36.864Z,67.69
2018-03-20T04:41:40.232Z,67.92
2018-03-20T04:44:43.560Z,67.36
2018-03-20T04:47:48.415Z,67.27
2018-03-20T04:50:55.165Z,67.05
2018-03-20T04:54:00.624Z,66.97
2018-03-20T04:57:03.815Z,66.68
2018-03-20T05:00:08.166Z,66.54
2018-03-20T05:03:11.509Z,66.13
2018-03-20T05:06:14.801Z,65.95
2018-03-20T05:09:19.302Z,66.14
2018-03-20T05:12:30.465Z,66.20
2018-03-20T05:15:33.676Z,65.74
2018-03-20T05:18:38.409Z,66.14
2018-03-20T05:21:45.123Z,65.91
2018-03-20T05:24:53.936Z,66.51
2018-03-20T05:27:57.131Z,65.96
2018-03-20T05:31:00.629Z,65.88
2018-03-20T05:34:04.886Z,65.93
2018-03-20T05:37:08.167Z,65.45
2018-03-20T05:40:11.689Z,65.34
2018-03-20T05:43:16.184Z,65.79
2018-03-20T05:46:19.453Z,65.72
2018-03-20T05:49:24.547Z,65.79
2018-03-20T05:52:27.857Z,65.23
2018-03-20T05:55:32.281Z,64.82
2018-03-20T05:58:37.633Z,65.44
2018-03-20T06:01:41.921Z,64.95
2018-03-20T06:04:45.293Z,64.67
2018-03-20T06:07:48.547Z,64.75
2018-03-20T06:10:55.000Z,65.26
2018-03-20T06:13:58.613Z,65.40
2018-03-20T06:17:05.130Z,65.39
2018-03-20T06:20:08.493Z,65.57
2018-03-20T06:23:11.844Z,64.84
2018-03-20T06:26:16.223Z,64.32
2018-03-20T06:29:19.486Z,64.54
2018-03-20T06:32:22.748Z,64.14
2018-03-20T06:35:25.998Z,62.93
2018-03-20T06:38:29.416Z,62.64
2018-03-20T06:41:32.684Z,61.68
2018-03-20T06:44:36.917Z,60.85
2018-03-20T06:47:40.091Z,62.20
2018-03-20T06:50:44.268Z,62.58
2018-03-20T06:53:47.538Z,63.56
2018-03-20T06:56:50.720Z,62.51
2018-03-20T06:59:53.917Z,61.20
2018-03-20T07:02:59.081Z,60.97
2018-03-20T07:06:02.376Z,61.44
2018-03-20T07:09:06.647Z,61.34
2018-03-20T07:12:09.841Z,61.03
2018-03-20T07:15:13.030Z,60.00
2018-03-20T07:18:16.255Z,59.59
2018-03-20T07:21:19.447Z,59.41
2018-03-20T07:24:24.715Z,58.62
2018-03-20T07:27:28.433Z,57.84
2018-03-20T07:30:31.775Z,58.65
2018-03-20T07:33:35.036Z,57.71
2018-03-20T07:36:40.273Z,57.92
2018-03-20T07:39:43.554Z,57.42
2018-03-20T07:42:46.832Z,56.45
2018-03-20T07:45:52.050Z,56.76
2018-03-20T07:48:56.173Z,55.98
2018-03-20T07:52:00.078Z,56.08
2018-03-20T07:55:03.261Z,55.46
2018-03-20T07:58:09.511Z,55.79
2018-03-20T08:01:13.705Z,55.51
2018-03-20T08:04:16.821Z,55.74
2018-03-20T08:07:20.971Z,54.37
2018-03-20T08:10:25.104Z,54.10
2018-03-20T08:13:30.209Z,52.89
2018-03-20T08:16:35.374Z,52.86
2018-03-20T08:19:39.524Z,51.95
2018-03-20T08:22:44.700Z,52.41
2018-03-20T08:25:47.903Z,51.48
2018-03-20T08:28:51.067Z,52.10
2018-03-20T08:31:55.201Z,50.75
2018-03-20T08:34:58.915Z,50.88
2018-03-20T08:38:02.255Z,50.18
2018-03-20T08:41:06.425Z,49.90
2018-03-20T08:44:09.632Z,49.01
2018-03-20T08:47:12.766Z,48.50
2018-03-20T08:50:15.901Z,47.53
2018-03-20T08:53:19.092Z,48.34
2018-03-20T08:56:22.248Z,47.74
2018-03-20T08:59:26.446Z,47.24
2018-03-20T09:02:30.640Z,44.67
2018-03-20T09:05:34.804Z,42.69
2018-03-20T09:08:38.000Z,46.10
2018-03-20T09:11:41.295Z,45.39
2018-03-20T09:14:46.249Z,44.73
2018-03-20T09:17:49.428Z,45.78
2018-03-20T09:20:54.615Z,44.06
2018-03-20T09:23:59.771Z,42.49
2018-03-20T09:27:03.932Z,43.14
2018-03-20T09:30:07.043Z,43.70
2018-03-20T09:33:10.177Z,41.79
2018-03-20T09:36:13.302Z,40.04
2018-03-20T09:39:16.460Z,37.99
2018-03-20T09:42:20.586Z,37.96
2018-03-20T09:45:23.691Z,38.04
2018-03-20T09:48:26.816Z,37.69
2018-03-20T09:51:29.957Z,37.65
2018-03-20T09:54:34.112Z,37.50
2018-03-20T09:57:37.216Z,36.94
2018-03-20T10:00:45.074Z,37.11
2018-03-20T10:03:49.198Z,36.98
2018-03-20T10:06:54.400Z,38.25
2018-03-20T10:09:59.549Z,40.49
2018-03-20T10:13:02.660Z,43.61
2018-03-20T10:16:05.837Z,45.08
2018-03-20T10:19:10.959Z,43.87
2018-03-20T10:22:14.188Z,44.75
2018-03-20T10:25:17.311Z,41.39
2018-03-20T10:28:25.781Z,42.06
2018-03-20T10:31:34.916Z,41.68
2018-03-20T10:34:38.060Z,39.92
2018-03-20T10:37:42.203Z,38.48
2018-03-20T10:40:45.341Z,38.78
2018-03-20T10:43:49.524Z,39.87
2018-03-20T10:46:58.592Z,38.94
2018-03-20T10:50:25.505Z,39.13
2018-03-20T10:53:28.665Z,41.69
2018-03-20T10:56:32.824Z,41.12
2018-03-20T10:59:36.996Z,42.79
2018-03-20T11:02:47.544Z,43.54
2018-03-20T11:05:50.720Z,42.02
2018-03-20T11:09:01.955Z,44.50
2018-03-20T11:12:05.161Z,45.48
2018-03-20T11:15:09.524Z,47.30
2018-03-20T11:18:12.880Z,55.34
2018-03-20T11:21:17.081Z,62.28
2018-03-20T11:24:20.412Z,68.39
2018-03-20T11:27:25.608Z,71.63
2018-03-20T11:30:29.220Z,73.21
2018-03-20T11:33:32.352Z,76.16
2018-03-20T11:36:36.618Z,77.52
2018-03-20T11:39:39.825Z,76.62
2018-03-20T11:42:43.983Z,77.44
2018-03-20T11:45:47.096Z,75.76
2018-03-20T11:48:51.256Z,76.69
2018-03-20T11:51:56.420Z,76.78
2018-03-20T11:55:00.643Z,75.96
2018-03-20T11:58:04.731Z,75.49
2018-03-20T12:01:14.124Z,76.62
2018-03-20T12:04:17.432Z,74.41
2018-03-20T12:07:21.572Z,73.31
2018-03-20T12:10:26.766Z,71.33
2018-03-20T12:13:29.960Z,71.52
2018-03-20T12:16:33.205Z,70.99
2018-03-20T12:19:39.621Z,68.51
2018-03-20T12:22:43.859Z,71.31
2018-03-20T12:25:47.992Z,70.79
2018-03-20T12:28:51.125Z,70.53
2018-03-20T12:31:56.423Z,67.91
2018-03-20T12:34:59.653Z,67.71
2018-03-20T12:38:02.861Z,68.44
2018-03-20T12:41:07.017Z,66.81
2018-03-20T12:44:16.652Z,66.82
2018-03-20T12:47:19.858Z,67.16
2018-03-20T12:50:23.037Z,65.82
2018-03-20T12:53:26.654Z,66.27
2018-03-20T12:56:29.844Z,65.23
2018-03-20T12:59:33.632Z,63.60
2018-03-20T13:02:36.761Z,63.96
2018-03-20T13:05:39.899Z,63.30
2018-03-20T13:08:44.060Z,63.65
2018-03-20T13:11:48.244Z,63.91
2018-03-20T13:14:52.460Z,63.85
2018-03-20T13:17:55.652Z,64.56
2018-03-20T13:20:59.917Z,63.27
2018-03-20T13:24:03.492Z,63.92
2018-03-20T13:27:06.725Z,63.56
2018-03-20T13:30:11.053Z,63.26
2018-03-20T13:33:19.863Z,63.96
2018-03-20T13:36:25.189Z,63.33
2018-03-20T13:39:28.544Z,62.63
2018-03-20T13:42:32.026Z,62.47
2018-03-20T13:45:35.313Z,62.85
2018-03-20T13:48:39.527Z,62.64
2018-03-20T13:51:42.797Z,62.00
2018-03-20T13:54:46.048Z,62.46
2018-03-20T13:57:53.557Z,62.33
2018-03-20T14:00:56.848Z,62.33
2018-03-20T14:04:00.043Z,62.69
2018-03-20T14:07:03.276Z,62.94
2018-03-20T14:10:07.484Z,62.12
2018-03-20T14:13:11.728Z,61.84
2018-03-20T14:16:18.615Z,61.43
2018-03-20T14:19:21.894Z,60.93
2018-03-20T14:22:25.072Z,61.15
2018-03-20T14:25:28.284Z,60.83
2018-03-20T14:28:31.480Z,60.64
2018-03-20T14:31:41.901Z,61.14
2018-03-20T14:34:45.368Z,61.07
2018-03-20T14:37:48.630Z,60.54
2018-03-20T14:40:51.873Z,60.50
2018-03-20T14:43:56.132Z,61.97
2018-03-20T14:47:01.213Z,62.19
2018-03-20T14:50:05.640Z,63.27
2018-03-20T14:53:08.953Z,62.58
2018-03-20T14:56:12.231Z,63.66
2018-03-20T14:59:22.969Z,65.58
2018-03-20T15:02:27.177Z,68.84
2018-03-20T15:05:30.321Z,69.98
2018-03-20T15:08:33.516Z,70.91
2018-03-20T15:11:36.657Z,71.22
2018-03-20T15:14:39.863Z,71.38
2018-03-20T15:17:46.272Z,71.29
2018-03-20T15:20:50.438Z,72.39
2018-03-20T15:23:54.660Z,72.66
2018-03-20T15:26:57.820Z,72.44
2018-03-20T15:30:01.064Z,73.74
2018-03-20T15:33:09.905Z,73.46
2018-03-20T15:36:13.386Z,72.76
2018-03-20T15:39:22.016Z,71.48
2018-03-20T15:42:25.232Z,73.50
2018-03-20T15:45:28.368Z,72.35
2018-03-20T15:48:33.516Z,72.46
2018-03-20T15:51:36.732Z,72.72
2018-03-20T15:54:40.605Z,72.70
2018-03-20T15:57:43.792Z,74.92
2018-03-20T16:00:47.957Z,73.78
2018-03-20T16:03:52.328Z,74.33
2018-03-20T16:06:57.485Z,75.19
2018-03-20T16:10:00.636Z,75.90
2018-03-20T16:13:04.580Z,76.61
2018-03-20T16:16:07.768Z,76.81
2018-03-20T16:19:11.933Z,77.57
2018-03-20T16:22:15.061Z,78.47
2018-03-20T16:25:23.710Z,77.37
2018-03-20T16:28:28.056Z,77.10
2018-03-20T16:31:33.498Z,77.01
2018-03-20T16:34:36.774Z,76.73
2018-03-20T16:37:41.092Z,76.17
2018-03-20T16:40:44.297Z,76.61
2018-03-20T16:43:47.631Z,76.27
2018-03-20T16:46:52.901Z,76.98
2018-03-20T16:49:56.193Z,76.60
2018-03-20T16:52:59.969Z,76.08
2018-03-20T16:56:03.273Z,76.70
2018-03-20T16:59:06.629Z,76.89
2018-03-20T17:02:09.853Z,77.02
2018-03-20T17:05:13.030Z,76.98
2018-03-20T17:08:16.346Z,77.54
2018-03-20T17:11:19.542Z,77.51
2018-03-20T17:14:22.794Z,77.61
2018-03-20T17:17:25.994Z,77.56
2018-03-20T17:20:29.287Z,78.48
2018-03-20T17:23:32.690Z,78.67
2018-03-20T17:26:35.979Z,78.54
2018-03-20T17:29:39.294Z,77.95
2018-03-20T17:32:42.474Z,78.00
2018-03-20T17:35:45.710Z,77.87
2018-03-20T17:38:49.293Z,77.04
2018-03-20T17:41:52.573Z,76.65
2018-03-20T17:44:55.839Z,76.66
2018-03-20T17:47:59.202Z,76.05
2018-03-20T17:51:02.459Z,75.53
2018-03-20T17:54:05.711Z,74.91
2018-03-20T17:57:08.962Z,73.94
2018-03-20T18:00:12.201Z,73.76
2018-03-20T18:03:15.489Z,71.63
2018-03-20T18:06:18.701Z,71.08
2018-03-20T18:09:22.010Z,70.14
2018-03-20T18:12:25.298Z,69.86
2018-03-20T18:15:28.611Z,66.91
2018-03-20T18:18:31.925Z,66.82
2018-03-20T18:21:35.257Z,65.80
2018-03-20T18:24:38.628Z,64.44
2018-03-20T18:27:41.889Z,64.35
2018-03-20T18:30:45.116Z,63.12
2018-03-20T18:33:48.328Z,62.47
2018-03-20T18:36:51.750Z,61.66
2018-03-20T18:39:55.077Z,62.69
2018-03-20T18:42:58.342Z,60.21
2018-03-20T18:46:01.581Z,60.23
2018-03-20T18:49:04.998Z,59.44
2018-03-20T18:52:08.399Z,58.79
2018-03-20T18:55:11.683Z,58.80
2018-03-20T18:58:15.742Z,58.16
2018-03-20T19:01:19.007Z,57.62
2018-03-20T19:04:22.459Z,58.09
2018-03-20T19:07:25.630Z,57.76
2018-03-20T19:10:28.918Z,59.25
2018-03-20T19:13:32.198Z,58.54
2018-03-20T19:16:35.501Z,58.90
2018-03-20T19:19:38.730Z,58.76
2018-03-20T19:22:41.922Z,58.25
2018-03-20T19:25:45.166Z,58.04
2018-03-20T19:28:48.463Z,58.28
2018-03-20T19:31:51.694Z,57.81
2018-03-20T19:34:54.817Z,56.16
2018-03-20T19:37:58.001Z,57.20
2018-03-20T19:41:01.353Z,57.38
2018-03-20T19:44:04.482Z,58.49
2018-03-20T19:47:07.735Z,57.21
2018-03-20T19:50:10.970Z,57.00
2018-03-20T19:53:14.229Z,56.00
2018-03-20T19:56:17.541Z,55.77
2018-03-20T19:59:20.834Z,55.60
2018-03-20T20:02:24.015Z,55.56
2018-03-20T20:05:27.178Z,55.44
2018-03-20T20:08:30.337Z,55.50
2018-03-20T20:11:33.534Z,56.13
2018-03-20T20:14:36.717Z,56.27
2018-03-20T20:17:39.890Z,56.32
2018-03-20T20:20:43.111Z,56.04
2018-03-20T20:23:46.284Z,56.47
2018-03-20T20:26:49.586Z,57.34
2018-03-20T20:29:52.909Z,57.47
2018-03-20T20:32:56.115Z,58.64
2018-03-20T20:35:59.360Z,60.02
2018-03-20T20:39:02.665Z,60.11
2018-03-20T20:42:06.021Z,60.96
2018-03-20T20:45:09.271Z,61.56
2018-03-20T20:48:12.573Z,62.14
2018-03-20T20:51:15.874Z,63.18
2018-03-20T20:54:19.107Z,63.45
2018-03-20T20:57:22.770Z,63.85
2018-03-20T21:00:26.078Z,64.41
2018-03-20T21:03:29.308Z,65.21
2018-03-20T21:06:32.492Z,64.99
2018-03-20T21:09:35.736Z,64.77
2018-03-20T21:12:39.084Z,65.15
2018-03-20T21:15:42.334Z,65.25
2018-03-20T21:18:45.643Z,65.74
2018-03-20T21:21:48.975Z,66.29
2018-03-20T21:24:52.145Z,66.26
2018-03-20T21:27:55.315Z,66.59
2018-03-20T21:30:58.442Z,67.27
2018-03-20T21:34:01.878Z,67.65
2018-03-20T21:37:06.220Z,67.55
2018-03-20T21:40:09.562Z,68.07
2018-03-20T21:43:13.649Z,67.92
2018-03-20T21:46:16.929Z,68.50
2018-03-20T21:49:20.421Z,68.89
2018-03-20T21:52:30.286Z,68.98
2018-03-20T21:55:33.637Z,68.79
2018-03-20T21:58:39.991Z,69.45
2018-03-20T22:01:44.824Z,69.97
2018-03-20T22:04:48.148Z,69.73
2018-03-20T22:07:51.473Z,69.50
2018-03-20T22:10:55.356Z,69.59
2018-03-20T22:13:58.779Z,69.67
2018-03-20T22:17:05.445Z,69.60
2018-03-20T22:20:08.809Z,69.65
2018-03-20T22:23:16.816Z,69.37
2018-03-20T22:26:20.130Z,70.00
2018-03-20T22:29:23.408Z,70.05
2018-03-20T22:32:26.600Z,70.38
2018-03-20T22:35:30.125Z,71.07
2018-03-20T22:38:39.052Z,71.02
2018-03-20T22:41:42.334Z,71.04
2018-03-20T22:44:59.255Z,71.32
2018-03-20T22:48:02.530Z,71.24
2018-03-20T22:51:06.805Z,71.52
2018-03-20T22:54:11.271Z,72.10
2018-03-20T22:57:14.549Z,72.26
2018-03-20T23:00:27.677Z,72.08
2018-03-20T23:03:31.939Z,72.00
2018-03-20T23:06:35.232Z,72.03
2018-03-20T23:09:38.517Z,72.48
2018-03-20T23:12:45.989Z,72.77
2018-03-20T23:15:49.206Z,73.04
2018-03-20T23:18:53.542Z,73.71
2018-03-20T23:22:08.138Z,73.32
2018-03-20T23:25:13.359Z,73.19
2018-03-20T23:28:16.608Z,72.92
2018-03-20T23:31:19.852Z,72.98
2018-03-20T23:34:23.416Z,72.91
2018-03-20T23:37:26.602Z,73.77
2018-03-20T23:40:30.866Z,74.12
2018-03-20T23:43:34.097Z,74.54
2018-03-20T23:46:37.366Z,74.24
2018-03-20T23:49:42.320Z,73.99
2018-03-20T23:52:47.224Z,73.82
2018-03-20T23:55:51.532Z,73.61
2018-03-20T23:58:54.801Z,73.61
